Time;durP1;ratioP1;P1;durP2;ratioP2;P2;SDS_P1;SDS_P2;PMS_P1;PMS_P2;Temp;Humidity;BMP_temperature;BMP_pressure;BME280_temperature;BME280_humidity;BME280_pressure;Samples;Min_cycle;Max_cycle;Signal;HPM_P1;HPM_P2
2023/10/06 00:04:06;;;;;;;14.80;9.10;;;;;;;10.67;100.00;101463.98;5079618;56;1142753;-72
2023/10/06 00:09:20;;;;;;;12.93;9.80;;;;;;;10.73;100.00;101470.19;5098411;56;1142748;-72
2023/10/06 00:14:38;;;;;;;12.10;8.60;;;;;;;10.80;100.00;101477.28;4994980;57;1142530;-73
2023/10/06 00:19:31;;;;;;;13.33;9.50;;;;;;;10.81;100.00;101486.92;4916354;57;1143039;-72
2023/10/06 00:24:37;;;;;;;11.50;9.60;;;;;;;10.81;100.00;101477.66;4931821;57;1143005;-72
2023/10/06 00:29:59;;;;;;;12.27;9.60;;;;;;;10.79;100.00;101471.14;4915307;57;1142973;-72
2023/10/06 00:35:15;;;;;;;12.33;8.50;;;;;;;10.83;100.00;101470.48;4996738;56;1142904;-72
2023/10/06 00:40:20;;;;;;;15.50;10.23;;;;;;;10.85;100.00;101468.55;4916367;57;1142901;-73
2023/10/06 00:45:30;;;;;;;11.10;8.10;;;;;;;10.82;100.00;101476.71;4935005;57;1144817;-73
2023/10/06 00:50:33;;;;;;;8.87;7.57;;;;;;;10.81;100.00;101474.54;4977288;57;1143302;-72
2023/10/06 00:55:40;;;;;;;13.17;8.13;;;;;;;10.82;100.00;101474.92;4991505;58;1141642;-72
2023/10/06 01:00:46;;;;;;;12.17;8.47;;;;;;;10.82;100.00;101473.59;5098223;56;1143379;-71
2023/10/06 01:05:59;;;;;;;16.53;7.97;;;;;;;10.88;100.00;101477.63;5052953;57;1142928;-72
2023/10/06 01:11:11;;;;;;;14.28;8.38;;;;;;;10.96;100.00;101471.86;5058814;56;1190744;-72
2023/10/06 01:16:15;;;;;;;16.93;7.80;;;;;;;10.99;100.00;101482.26;5004675;56;1247144;-73
2023/10/06 01:21:28;;;;;;;12.93;8.33;;;;;;;11.01;100.00;101479.86;5004667;56;1142871;-72
2023/10/06 01:26:28;;;;;;;12.23;8.10;;;;;;;11.00;100.00;101483.96;4991004;57;1143078;-73
2023/10/06 01:31:39;;;;;;;13.87;6.50;;;;;;;10.97;100.00;101480.18;5053911;56;1142930;-71
2023/10/06 01:36:51;;;;;;;12.50;7.67;;;;;;;10.93;100.00;101479.05;5003481;56;1142879;-71
2023/10/06 01:41:48;;;;;;;11.80;7.53;;;;;;;10.89;100.00;101489.91;4920032;57;1142790;-72
2023/10/06 01:46:55;;;;;;;13.70;7.87;;;;;;;10.88;100.00;101491.71;4931668;58;1143027;-74
2023/10/06 01:52:05;;;;;;;16.07;7.37;;;;;;;10.87;100.00;101495.77;5060970;56;1142828;-73
2023/10/06 01:57:11;;;;;;;18.07;9.08;;;;;;;10.86;100.00;101486.98;5003557;56;1142816;-72
2023/10/06 02:02:23;;;;;;;15.63;10.30;;;;;;;10.90;100.00;101483.68;4995223;57;1142892;-73
2023/10/06 02:07:24;;;;;;;16.03;9.53;;;;;;;10.87;100.00;101492.66;4995687;57;1144984;-72
2023/10/06 02:12:29;;;;;;;17.13;10.43;;;;;;;10.85;100.00;101491.90;5001052;57;1250776;-72
2023/10/06 02:17:36;;;;;;;17.23;10.88;;;;;;;10.86;100.00;101483.02;4917811;57;1185230;-71
2023/10/06 02:22:41;;;;;;;20.25;10.95;;;;;;;10.91;100.00;101478.77;4909864;58;1250392;-72
2023/10/06 02:27:50;;;;;;;16.53;10.73;;;;;;;10.95;100.00;101482.07;4929011;58;1252289;-71
2023/10/06 02:32:56;;;;;;;17.50;12.57;;;;;;;10.96;100.00;101482.45;5054220;57;1253052;-73
2023/10/06 02:38:05;;;;;;;16.42;11.85;;;;;;;10.91;100.00;101479.61;5083677;56;1262775;-71
2023/10/06 02:43:09;;;;;;;24.15;13.93;;;;;;;10.83;100.00;101473.13;5117576;56;1252551;-73
2023/10/06 02:48:22;;;;;;;18.23;12.97;;;;;;;10.79;100.00;101475.58;5123377;55;1253087;-72
2023/10/06 02:53:29;;;;;;;15.90;11.63;;;;;;;10.79;100.00;101475.58;5173382;55;1261575;-72
2023/10/06 02:58:33;;;;;;;29.33;13.30;;;;;;;10.80;100.00;101469.34;5116021;55;1261930;-72
2023/10/06 03:03:39;;;;;;;14.00;10.40;;;;;;;10.79;100.00;101471.61;5095196;56;1261467;-72
2023/10/06 03:08:45;;;;;;;21.27;11.53;;;;;;;10.82;100.00;101479.36;5092095;56;1261445;-72
2023/10/06 03:13:54;;;;;;;16.03;10.10;;;;;;;10.82;100.00;101489.47;5085740;56;1262089;-73
2023/10/06 03:18:59;;;;;;;23.33;10.07;;;;;;;10.78;100.00;101498.55;5091629;56;1261534;-72
2023/10/06 03:24:06;;;;;;;17.23;10.75;;;;;;;10.76;100.00;101497.78;5094675;56;1145099;-72
2023/10/06 03:29:28;;;;;;;14.38;9.65;;;;;;;10.73;100.00;101499.77;5114447;56;1145269;-72
2023/10/06 03:34:20;;;;;;;17.13;9.57;;;;;;;10.69;100.00;101500.92;5012885;56;1142982;-71
2023/10/06 03:39:38;;;;;;;13.70;8.63;;;;;;;10.66;100.00;101505.93;5015449;56;1258440;-72
2023/10/06 03:44:34;;;;;;;13.47;8.97;;;;;;;10.63;100.00;101516.70;5010384;57;1259600;-72
2023/10/06 03:49:42;;;;;;;17.47;9.77;;;;;;;10.61;100.00;101500.06;5029612;57;1143184;-72
2023/10/06 03:54:48;;;;;;;12.93;9.33;;;;;;;10.62;100.00;101496.47;5080411;55;1142937;-72
2023/10/06 03:59:54;;;;;;;13.30;9.27;;;;;;;10.60;100.00;101508.94;5066314;56;1142926;-72
2023/10/06 04:05:04;;;;;;;16.40;9.23;;;;;;;10.58;100.00;101505.06;5078555;56;1143040;-72
2023/10/06 04:10:14;;;;;;;15.32;9.78;;;;;;;10.61;100.00;101513.29;4973495;56;1232272;-72
2023/10/06 04:15:15;;;;;;;17.75;9.25;;;;;;;10.60;100.00;101512.06;4996285;57;1143060;-72
2023/10/06 04:20:20;;;;;;;26.57;10.97;;;;;;;10.54;100.00;101517.28;4994847;56;1181433;-72
2023/10/06 04:25:26;;;;;;;16.97;11.83;;;;;;;10.55;100.00;101509.69;4988903;57;1247788;-71
2023/10/06 04:30:34;;;;;;;18.70;11.60;;;;;;;10.52;100.00;101505.47;5010851;58;1145066;-72
2023/10/06 04:35:42;;;;;;;19.57;11.43;;;;;;;10.49;100.00;101513.58;4996158;56;1164580;-71
2023/10/06 04:40:48;;;;;;;19.47;12.80;;;;;;;10.47;100.00;101506.68;4941326;57;1145247;-71
2023/10/06 04:45:55;;;;;;;18.97;10.00;;;;;;;10.47;100.00;101511.97;5123860;56;1144964;-71
2023/10/06 04:51:03;;;;;;;20.03;10.97;;;;;;;10.41;100.00;101514.50;5051667;56;1145109;-73
2023/10/06 04:56:09;;;;;;;24.37;11.15;;;;;;;10.38;100.00;101519.16;5039806;56;1145035;-72
2023/10/06 05:01:16;;;;;;;14.65;9.55;;;;;;;10.36;100.00;101526.33;5057239;56;1145048;-72
2023/10/06 05:06:22;;;;;;;13.00;9.67;;;;;;;10.31;100.00;101530.56;4989112;57;1142902;-72
2023/10/06 05:11:32;;;;;;;13.77;9.40;;;;;;;10.35;100.00;101520.66;4991912;56;1142846;-71
2023/10/06 05:16:35;;;;;;;12.87;8.03;;;;;;;10.30;100.00;101531.50;4982743;57;1142924;-72
2023/10/06 05:21:40;;;;;;;12.20;8.47;;;;;;;10.26;100.00;101537.91;4971375;57;1142783;-72
2023/10/06 05:26:46;;;;;;;12.27;8.40;;;;;;;10.20;100.00;101539.15;5025882;56;1143122;-72
2023/10/06 05:31:52;;;;;;;10.53;8.47;;;;;;;10.16;100.00;101541.55;5074567;56;1142885;-71
2023/10/06 05:37:00;;;;;;;11.93;7.13;;;;;;;10.20;100.00;101552.84;5098988;56;1143091;-71
2023/10/06 05:42:08;;;;;;;11.22;7.17;;;;;;;10.17;100.00;101562.23;5098529;56;1143031;-73
2023/10/06 05:47:14;;;;;;;11.85;7.00;;;;;;;10.13;100.00;101555.41;5092237;56;1143130;-72
2023/10/06 05:52:20;;;;;;;13.90;8.77;;;;;;;10.10;100.00;101559.55;5078944;56;1143101;-73
2023/10/06 05:57:26;;;;;;;17.33;10.43;;;;;;;10.09;100.00;101566.63;5079453;56;1143166;-73
2023/10/06 06:02:36;;;;;;;19.83;13.50;;;;;;;10.11;100.00;101557.30;5097806;56;1144810;-72
2023/10/06 06:07:39;;;;;;;16.80;11.33;;;;;;;10.17;100.00;101563.08;4995784;57;1144794;-73
2023/10/06 06:12:47;;;;;;;20.40;13.30;;;;;;;10.18;100.00;101564.82;5061271;56;1144717;-72
2023/10/06 06:17:53;;;;;;;18.10;12.17;;;;;;;10.14;100.00;101563.26;5017282;56;1145112;-73
2023/10/06 06:23:02;;;;;;;17.50;12.23;;;;;;;10.15;100.00;101566.28;4987364;58;1144839;-74
2023/10/06 06:28:08;;;;;;;16.55;11.20;;;;;;;10.14;100.00;101569.87;5011203;56;1145217;-72
2023/10/06 06:33:19;;;;;;;15.23;10.00;;;;;;;10.17;100.00;101573.66;5099007;55;1145099;-73
2023/10/06 06:38:24;;;;;;;12.77;9.67;;;;;;;10.22;100.00;101573.43;4995784;57;1144924;-74
2023/10/06 06:43:27;;;;;;;16.67;11.47;;;;;;;10.19;100.00;101569.64;4996019;57;1142891;-73
2023/10/06 06:48:35;;;;;;;23.97;11.23;;;;;;;10.23;100.00;101573.81;5010307;57;1144951;-73
2023/10/06 06:53:41;;;;;;;19.67;10.83;;;;;;;10.23;100.00;101570.66;4996398;56;1144952;-72
2023/10/06 06:58:48;;;;;;;18.83;9.77;;;;;;;10.28;100.00;101575.69;5027229;56;1145217;-73
2023/10/06 07:03:54;;;;;;;19.43;12.60;;;;;;;10.28;100.00;101573.52;5011219;57;1143146;-73
2023/10/06 07:08:59;;;;;;;19.90;12.17;;;;;;;10.29;100.00;101568.61;5021916;57;1144707;-73
2023/10/06 07:14:05;;;;;;;21.73;15.33;;;;;;;10.35;100.00;101573.08;5006484;57;1147728;-74
2023/10/06 07:19:14;;;;;;;15.20;10.78;;;;;;;10.41;100.00;101571.84;5098551;56;1145388;-73
2023/10/06 07:24:18;;;;;;;16.00;10.98;;;;;;;10.42;100.00;101564.28;5077921;56;1145174;-72
2023/10/06 07:29:24;;;;;;;13.43;9.87;;;;;;;10.45;100.00;101563.63;5078073;56;1144993;-73
2023/10/06 07:34:30;;;;;;;11.17;7.97;;;;;;;10.53;100.00;101561.86;5099046;56;1142784;-72
2023/10/06 07:39:35;;;;;;;17.20;11.13;;;;;;;10.59;100.00;101566.76;5078229;57;1142803;-73
2023/10/06 07:44:41;;;;;;;16.13;10.20;;;;;;;10.68;100.00;101558.75;5077588;56;1144895;-72
2023/10/06 07:49:46;;;;;;;24.00;13.67;;;;;;;10.74;100.00;101555.23;5120140;55;1145331;-73
2023/10/06 07:54:53;;;;;;;16.60;10.97;;;;;;;10.83;100.00;101556.01;5108179;55;1144931;-73
2023/10/06 08:00:04;;;;;;;22.43;12.93;;;;;;;10.93;100.00;101543.05;5100077;56;1144969;-72
2023/10/06 08:05:13;;;;;;;19.87;11.05;;;;;;;11.10;100.00;101549.45;5099796;55;1145020;-72
2023/10/06 08:10:20;;;;;;;14.80;10.53;;;;;;;11.22;100.00;101537.22;5130097;56;1145130;-72
2023/10/06 08:15:27;;;;;;;21.57;10.97;;;;;;;11.25;100.00;101531.27;5098492;56;1145082;-73
2023/10/06 08:20:35;;;;;;;17.83;10.70;;;;;;;11.33;100.00;101534.72;5098666;55;1144936;-73
2023/10/06 08:25:41;;;;;;;23.30;11.87;;;;;;;11.42;100.00;101527.52;5118590;56;1144877;-73
2023/10/06 08:30:47;;;;;;;21.80;10.30;;;;;;;11.51;100.00;101523.41;5098846;55;1144989;-73
2023/10/06 08:36:00;;;;;;;22.30;13.27;;;;;;;11.63;100.00;101522.59;5154144;55;1145094;-73
2023/10/06 08:41:07;;;;;;;19.12;9.40;;;;;;;11.78;100.00;101512.34;5184213;55;1144931;-73
2023/10/06 08:46:15;;;;;;;22.52;11.38;;;;;;;11.94;100.00;101502.88;5205307;55;1142910;-72
2023/10/06 08:51:25;;;;;;;19.50;10.53;;;;;;;12.07;100.00;101489.16;5183552;55;1145029;-74
2023/10/06 08:56:33;;;;;;;17.40;10.03;;;;;;;12.18;100.00;101493.75;5171066;55;1145264;-72
2023/10/06 09:01:39;;;;;;;14.60;9.03;;;;;;;12.24;100.00;101477.39;5118327;56;1144934;-73
2023/10/06 09:07:08;;;;;;;18.50;9.77;;;;;;;12.38;100.00;101491.88;5099423;56;1143060;-74
2023/10/06 09:12:26;;;;;;;12.58;8.53;;;;;;;12.52;100.00;101487.81;5099671;56;1142977;-74
2023/10/06 09:17:34;;;;;;;23.03;9.03;;;;;;;12.64;100.00;101477.64;5098721;56;1142859;-74
2023/10/06 09:22:57;;;;;;;17.50;8.87;;;;;;;12.67;100.00;101478.77;5118846;56;1142770;-74
2023/10/06 09:28:08;;;;;;;16.83;7.97;;;;;;;12.77;100.00;101475.44;5096106;56;1143040;-73
2023/10/06 09:33:12;;;;;;;13.55;8.53;;;;;;;12.89;100.00;101466.59;5171235;55;1142801;-74
2023/10/06 09:38:18;;;;;;;16.53;8.80;;;;;;;12.96;100.00;101453.25;5184562;56;1142668;-73
2023/10/06 09:43:27;;;;;;;11.97;7.77;;;;;;;12.98;100.00;101452.19;5205121;55;1142818;-73
2023/10/06 09:48:33;;;;;;;15.63;9.77;;;;;;;13.03;100.00;101445.19;5156289;56;1143201;-74
2023/10/06 09:53:44;;;;;;;20.53;9.00;;;;;;;13.10;100.00;101452.24;5101646;56;1143231;-74
2023/10/06 09:58:51;;;;;;;11.50;8.70;;;;;;;13.16;100.00;101443.36;5077147;56;1143252;-72
2023/10/06 10:03:58;;;;;;;14.47;8.40;;;;;;;13.22;100.00;101434.09;4967563;56;1142868;-73
2023/10/06 10:09:07;;;;;;;16.70;9.43;;;;;;;13.28;100.00;101435.83;5016736;56;1142839;-75
2023/10/06 10:14:25;;;;;;;14.20;7.83;;;;;;;13.37;100.00;101423.66;5021949;57;1142952;-73
2023/10/06 10:19:31;;;;;;;14.20;8.20;;;;;;;13.52;100.00;101397.25;4964418;57;1143272;-73
2023/10/06 10:24:37;;;;;;;14.60;8.00;;;;;;;13.52;100.00;101397.25;5025311;57;1143063;-72
2023/10/06 10:29:44;;;;;;;18.30;7.63;;;;;;;13.64;100.00;101404.29;5009213;57;1142865;-73
2023/10/06 10:35:16;;;;;;;14.13;8.47;;;;;;;13.71;100.00;101405.53;4954802;58;1142899;-72
2023/10/06 10:40:25;;;;;;;9.85;8.30;;;;;;;13.80;100.00;101383.17;5026018;56;1142922;-74
2023/10/06 10:45:47;;;;;;;13.37;8.40;;;;;;;13.88;100.00;101392.75;4943816;57;1140603;-73
2023/10/06 10:51:14;;;;;;;12.93;8.40;;;;;;;13.96;100.00;101367.72;5057410;56;1142874;-75
2023/10/06 10:56:28;;;;;;;17.60;9.55;;;;;;;13.98;100.00;101362.65;5018040;57;1142982;-74
2023/10/06 11:01:42;;;;;;;;;;;;;;;14.05;100.00;101360.37;5017118;57;1143155;-73
2023/10/06 11:06:46;;;;;;;16.00;9.17;;;;;;;14.17;100.00;101354.07;5051618;56;978066;-73
2023/10/06 11:11:56;;;;;;;12.73;8.50;;;;;;;14.25;100.00;101352.96;4953766;56;1140874;-75
2023/10/06 11:17:02;;;;;;;14.80;9.63;;;;;;;14.38;100.00;101344.84;4934451;58;1143154;-73
2023/10/06 11:22:22;;;;;;;15.98;9.08;;;;;;;14.52;100.00;101336.62;4981112;56;1142914;-72
2023/10/06 11:27:28;;;;;;;19.13;11.30;;;;;;;14.63;100.00;101336.61;5117068;56;1142974;-72
2023/10/06 11:32:34;;;;;;;12.90;8.70;;;;;;;14.68;100.00;101329.56;5098112;56;1144974;-73
2023/10/06 11:37:41;;;;;;;20.73;11.27;;;;;;;14.73;100.00;101320.23;5097779;56;1142799;-75
2023/10/06 11:42:47;;;;;;;16.37;9.50;;;;;;;14.82;100.00;101302.64;5125923;56;1145270;-73
2023/10/06 11:47:54;;;;;;;14.10;9.93;;;;;;;14.92;100.00;101296.92;5015258;57;1143004;-72
2023/10/06 11:53:01;;;;;;;12.27;9.20;;;;;;;14.97;100.00;101288.04;5000219;57;1142899;-75
2023/10/06 11:58:08;;;;;;;18.23;10.33;;;;;;;15.06;100.00;101283.78;5065801;55;1142801;-73
2023/10/06 12:03:16;;;;;;;12.93;9.48;;;;;;;15.09;100.00;101283.04;5184945;55;1145534;-74
2023/10/06 12:08:21;;;;;;;15.85;9.15;;;;;;;15.17;100.00;101282.38;5139046;55;1142867;-73
2023/10/06 12:13:27;;;;;;;20.30;9.77;;;;;;;15.22;100.00;101275.33;5124460;55;1142918;-72
2023/10/06 12:18:32;;;;;;;12.80;8.83;;;;;;;15.26;100.00;101277.61;5098865;56;1142954;-75
2023/10/06 12:23:39;;;;;;;13.03;9.07;;;;;;;15.29;100.00;101266.67;5078030;56;1143120;-75
2023/10/06 12:28:46;;;;;;;16.27;9.70;;;;;;;15.34;100.00;101254.29;5077319;57;1142828;-72
2023/10/06 12:33:55;;;;;;;20.00;9.13;;;;;;;15.36;100.00;101247.86;5091948;57;1143023;-74
2023/10/06 12:39:01;;;;;;;16.27;8.20;;;;;;;15.39;100.00;101247.59;4964964;57;1143020;-73
2023/10/06 12:44:06;;;;;;;9.75;6.70;;;;;;;15.39;100.00;101243.59;4992521;57;1143095;-76
2023/10/06 12:49:18;;;;;;;10.48;6.35;;;;;;;15.33;100.00;101249.45;5041993;56;1141050;-73
2023/10/06 12:54:19;;;;;;;13.10;8.10;;;;;;;15.28;100.00;101240.14;5106212;55;1142983;-72
2023/10/06 12:59:25;;;;;;;12.10;7.97;;;;;;;15.22;100.00;101234.03;5021764;54;1143091;-73
2023/10/06 13:04:31;;;;;;;19.47;9.27;;;;;;;15.21;100.00;101221.67;5014814;57;1143166;-73
2023/10/06 13:09:39;;;;;;;12.10;7.30;;;;;;;15.17;100.00;101202.92;4995921;58;1142819;-73
2023/10/06 13:14:43;;;;;;;19.87;8.53;;;;;;;15.14;100.00;101198.20;4995653;56;1142947;-73
2023/10/06 13:19:49;;;;;;;10.53;7.50;;;;;;;15.17;100.00;101174.95;4930220;57;1143196;-72
2023/10/06 13:24:58;;;;;;;11.87;6.77;;;;;;;15.19;100.00;101155.67;5063783;57;1143174;-72
2023/10/06 13:30:13;;;;;;;12.13;7.70;;;;;;;15.22;100.00;101131.44;4933966;57;1142953;-73
2023/10/06 13:35:19;;;;;;;11.25;8.45;;;;;;;15.32;100.00;101109.66;4996210;57;1142787;-72
2023/10/06 13:40:25;;;;;;;15.28;10.05;;;;;;;15.32;100.00;101109.66;5014583;56;1142764;-74
2023/10/06 13:45:31;;;;;;;21.43;13.73;;;;;;;15.33;100.00;101100.67;4995672;56;1145255;-73
2023/10/06 13:50:36;;;;;;;11.67;8.20;;;;;;;15.33;100.00;101104.19;4987100;56;1144787;-72
2023/10/06 13:55:44;;;;;;;19.67;12.53;;;;;;;15.35;100.00;101080.06;5099062;56;1143000;-72
2023/10/06 14:00:50;;;;;;;33.13;16.53;;;;;;;15.39;100.00;101083.67;5081501;56;1144948;-73
2023/10/06 14:05:57;;;;;;;42.90;24.80;;;;;;;15.41;100.00;101076.38;4986609;56;1145174;-72
2023/10/06 14:11:03;;;;;;;16.73;8.10;;;;;;;15.45;100.00;101071.59;5005125;57;1144975;-73
2023/10/06 14:16:09;;;;;;;12.77;6.10;;;;;;;15.48;100.00;101062.84;5082219;56;1143165;-72
2023/10/06 14:21:14;;;;;;;11.28;6.05;;;;;;;15.54;100.00;101050.80;5026096;56;1142922;-73
2023/10/06 14:26:23;;;;;;;8.68;5.03;;;;;;;15.66;100.00;101039.05;5073799;56;1143024;-71
2023/10/06 14:31:34;;;;;;;15.00;5.50;;;;;;;15.77;100.00;101022.91;5117180;56;1140795;-72
2023/10/06 14:36:36;;;;;;;7.13;4.33;;;;;;;15.82;100.00;101016.67;5109847;56;1142735;-71
2023/10/06 14:46:58;;;;;;;9.90;4.30;;;;;;;15.82;100.00;100986.00;4840786;57;1143073;-74
2023/10/06 14:52:07;;;;;;;9.43;4.40;;;;;;;15.82;100.00;100951.32;5074235;56;1140999;-73
2023/10/06 14:57:12;;;;;;;12.87;5.10;;;;;;;15.85;100.00;100946.69;5084289;56;1140886;-73
2023/10/06 15:02:21;;;;;;;21.90;10.53;;;;;;;15.85;100.00;100938.20;5087943;56;1142988;-72
2023/10/06 15:07:25;;;;;;;13.32;6.62;;;;;;;15.87;100.00;100943.39;5040708;57;1145175;-71
2023/10/06 15:12:31;;;;;;;25.30;9.53;;;;;;;15.86;100.00;100942.55;4979124;58;1143029;-71
2023/10/06 15:17:37;;;;;;;9.30;4.03;;;;;;;15.85;100.00;100929.35;4919406;58;1142881;-70
2023/10/06 15:22:42;;;;;;;9.80;4.90;;;;;;;15.86;100.00;100919.03;5045664;56;1140815;-73
2023/10/06 15:27:48;;;;;;;11.13;4.80;;;;;;;15.86;100.00;100927.88;5006059;56;1140932;-73
2023/10/06 15:32:54;;;;;;;11.67;5.13;;;;;;;15.88;100.00;100921.08;5079270;55;1143292;-73
2023/10/06 15:38:00;;;;;;;12.67;6.20;;;;;;;15.88;100.00;100915.73;4994387;56;1143188;-72
2023/10/06 15:43:08;;;;;;;17.50;10.83;;;;;;;15.89;100.00;100904.08;5021954;56;1142713;-71
2023/10/06 15:48:15;;;;;;;19.92;9.80;;;;;;;15.91;100.00;100906.93;5055961;56;1145327;-71
2023/10/06 15:53:20;;;;;;;10.70;6.20;;;;;;;15.90;100.00;100889.23;5065664;56;1143015;-73
2023/10/06 15:58:26;;;;;;;8.23;4.15;;;;;;;15.89;100.00;100879.55;4947399;57;1143101;-71
2023/10/06 16:03:31;;;;;;;10.47;4.90;;;;;;;15.90;100.00;100879.91;5005914;56;1140747;-73
2023/10/06 16:08:38;;;;;;;9.37;4.10;;;;;;;15.93;100.00;100872.11;4974246;57;1143038;-73
2023/10/06 16:13:45;;;;;;;7.73;3.93;;;;;;;15.91;100.00;100862.91;5040030;56;1140819;-72
2023/10/06 16:18:50;;;;;;;7.50;3.77;;;;;;;15.92;100.00;100865.09;4939111;57;1140486;-72
2023/10/06 16:23:57;;;;;;;6.97;4.00;;;;;;;15.91;100.00;100866.08;4992441;57;1140780;-73
2023/10/06 16:29:03;;;;;;;9.80;3.80;;;;;;;15.88;100.00;100860.56;5105346;56;1141064;-73
2023/10/06 16:34:09;;;;;;;10.58;3.62;;;;;;;15.86;100.00;100856.36;4991945;57;1140939;-73
2023/10/06 16:39:21;;;;;;;10.97;5.63;;;;;;;15.77;100.00;100826.87;5038837;56;1143207;-73
2023/10/06 16:44:25;;;;;;;14.75;4.20;;;;;;;15.68;100.00;100829.59;4994824;57;1142973;-73
2023/10/06 16:49:33;;;;;;;7.10;3.90;;;;;;;15.58;100.00;100820.29;5047922;56;1143171;-71
2023/10/06 16:54:38;;;;;;;7.00;4.13;;;;;;;15.52;100.00;100827.48;5049315;56;1140817;-74
2023/10/06 16:59:44;;;;;;;7.97;4.27;;;;;;;15.47;100.00;100819.06;5011040;57;1141200;-74
2023/10/06 17:04:50;;;;;;;45.37;15.13;;;;;;;15.46;100.00;100834.22;5010468;57;1141301;-73
2023/10/06 17:09:55;;;;;;;7.30;4.03;;;;;;;15.44;100.00;100828.19;5033671;56;1144918;-74
2023/10/06 17:15:01;;;;;;;8.83;3.37;;;;;;;15.38;100.00;100826.59;5032089;56;1141005;-75
2023/10/06 17:20:17;;;;;;;7.47;3.33;;;;;;;15.33;100.00;100832.84;5098445;56;1140958;-74
2023/10/06 17:25:23;;;;;;;6.70;3.50;;;;;;;15.22;100.00;100834.32;5054147;56;1140671;-71
2023/10/06 17:30:29;;;;;;;6.62;3.05;;;;;;;15.07;100.00;100824.09;4943974;57;1141022;-73
2023/10/06 17:35:35;;;;;;;6.50;3.53;;;;;;;14.95;100.00;100832.37;4996107;57;1140783;-72
2023/10/06 17:40:41;;;;;;;10.67;4.40;;;;;;;14.84;100.00;100830.66;5044062;56;1140960;-73
2023/10/06 17:45:47;;;;;;;17.17;6.80;;;;;;;14.78;100.00;100829.90;4944513;57;1142876;-73
2023/10/06 17:50:52;;;;;;;12.70;4.83;;;;;;;14.72;100.00;100815.80;5005146;57;1142858;-71
2023/10/06 17:56:00;;;;;;;13.47;4.57;;;;;;;14.66;100.00;100809.22;5049244;56;1143120;-74
2023/10/06 18:01:07;;;;;;;15.67;5.00;;;;;;;14.62;100.00;100796.31;5027245;57;1143037;-72
2023/10/06 18:06:13;;;;;;;10.20;4.67;;;;;;;14.62;100.00;100802.48;5019993;57;1143149;-73
2023/10/06 18:11:18;;;;;;;11.30;5.83;;;;;;;14.62;100.00;100797.16;5024472;57;1143033;-72
2023/10/06 18:16:25;;;;;;;9.65;4.33;;;;;;;14.62;100.00;100793.66;4999803;56;1143257;-73
2023/10/06 18:21:30;;;;;;;10.72;4.08;;;;;;;14.59;100.00;100777.95;5023170;57;1140892;-71
2023/10/06 18:26:36;;;;;;;13.73;4.87;;;;;;;14.59;100.00;100766.81;5019807;57;1143004;-72
2023/10/06 18:31:41;;;;;;;9.93;4.87;;;;;;;14.55;100.00;100756.58;4977051;57;1143225;-73
2023/10/06 18:36:48;;;;;;;9.37;5.00;;;;;;;14.58;100.00;100746.98;4954839;57;1141046;-71
2023/10/06 18:41:53;;;;;;;15.70;5.60;;;;;;;14.58;100.00;100737.67;5031026;56;1141010;-73
2023/10/06 18:46:59;;;;;;;8.23;4.17;;;;;;;14.57;100.00;100721.34;5132015;55;1142648;-73
2023/10/06 18:52:05;;;;;;;7.80;4.73;;;;;;;14.62;100.00;100728.44;5119030;56;1140557;-73
2023/10/06 18:57:12;;;;;;;9.30;4.80;;;;;;;14.64;100.00;100734.47;5101363;55;1140543;-73
2023/10/06 19:02:18;;;;;;;10.58;5.12;;;;;;;14.66;100.00;100720.53;5054228;56;1140992;-73
2023/10/06 19:07:24;;;;;;;9.08;4.75;;;;;;;14.68;100.00;100702.56;5162434;56;1142951;-71
2023/10/06 19:12:32;;;;;;;9.15;5.35;;;;;;;14.74;100.00;100712.66;4996076;57;1140961;-74
2023/10/06 19:17:37;;;;;;;15.70;7.40;;;;;;;14.76;100.00;100692.07;5111025;56;1140618;-71
2023/10/06 19:22:43;;;;;;;16.70;5.50;;;;;;;14.73;100.00;100688.35;5030692;57;1142801;-72
2023/10/06 19:27:53;;;;;;;13.95;4.45;;;;;;;14.67;100.00;100680.92;5053221;56;1142722;-70
2023/10/06 19:32:59;;;;;;;6.03;3.57;;;;;;;14.56;100.00;100680.58;5097884;55;1143275;-71
2023/10/06 19:38:05;;;;;;;9.83;5.40;;;;;;;14.43;100.00;100672.88;5185780;55;1140753;-72
2023/10/06 19:43:10;;;;;;;13.73;4.77;;;;;;;14.34;100.00;100667.54;5206099;55;1140707;-73
2023/10/06 19:48:20;;;;;;;11.73;4.13;;;;;;;14.25;100.00;100658.55;5185721;55;1143074;-73
2023/10/06 19:53:25;;;;;;;5.13;3.77;;;;;;;14.21;100.00;100654.97;5098006;56;1142908;-72
2023/10/06 19:58:32;;;;;;;6.58;3.92;;;;;;;14.15;100.00;100636.92;5042435;56;1140653;-72
2023/10/06 20:03:38;;;;;;;6.60;4.13;;;;;;;14.16;100.00;100631.96;5003492;57;1140936;-71
2023/10/06 20:08:43;;;;;;;6.93;4.07;;;;;;;14.12;100.00;100623.41;5043236;56;1140964;-72
2023/10/06 20:13:49;;;;;;;9.00;4.23;;;;;;;14.12;100.00;100621.23;5038831;57;1140806;-73
2023/10/06 20:18:56;;;;;;;6.73;4.00;;;;;;;14.09;100.00;100606.39;5011153;57;1140792;-73
2023/10/06 20:24:02;;;;;;;11.90;4.77;;;;;;;14.09;100.00;100605.06;4983002;57;1140996;-74
2023/10/06 20:29:11;;;;;;;8.50;4.37;;;;;;;14.09;100.00;100600.59;4958949;57;1143038;-72
2023/10/06 20:34:16;;;;;;;11.83;5.13;;;;;;;14.12;100.00;100598.63;4989599;57;1140869;-70
2023/10/06 20:39:22;;;;;;;8.23;4.40;;;;;;;14.14;100.00;100596.67;4957736;57;1143211;-72
2023/10/06 20:44:28;;;;;;;11.25;4.90;;;;;;;14.17;100.00;100594.59;5007374;56;1140916;-73
2023/10/06 20:49:33;;;;;;;8.23;4.63;;;;;;;14.22;100.00;100587.49;5082482;56;1143124;-72
2023/10/06 20:54:39;;;;;;;11.37;4.77;;;;;;;14.22;100.00;100587.00;5009525;56;1140985;-73
2023/10/06 20:59:46;;;;;;;9.73;3.97;;;;;;;14.27;100.00;100576.79;4935771;57;1142883;-71
2023/10/06 21:04:52;;;;;;;6.87;3.87;;;;;;;14.31;100.00;100579.53;5044236;57;1140686;-72
2023/10/06 21:09:58;;;;;;;9.20;4.07;;;;;;;14.37;100.00;100572.28;4994623;57;1140850;-72
2023/10/06 21:15:05;;;;;;;7.43;3.80;;;;;;;14.45;100.00;100567.63;5004683;57;1141010;-72
2023/10/06 21:20:17;;;;;;;8.23;3.80;;;;;;;14.49;100.00;100558.39;4994473;56;1149858;-72
2023/10/06 21:25:19;;;;;;;7.77;3.93;;;;;;;14.52;100.00;100546.10;5030251;56;1141345;-71
2023/10/06 21:30:24;;;;;;;6.95;3.22;;;;;;;14.57;100.00;100529.22;4927245;57;1141160;-71
2023/10/06 21:35:30;;;;;;;10.57;3.73;;;;;;;14.60;100.00;100514.78;4957824;57;1140719;-72
2023/10/06 21:40:36;;;;;;;8.13;3.43;;;;;;;14.66;100.00;100516.88;5087774;56;1142978;-71
2023/10/06 21:45:42;;;;;;;6.63;3.13;;;;;;;14.74;100.00;100518.31;5005846;56;1140912;-72
2023/10/06 21:50:49;;;;;;;4.97;3.07;;;;;;;14.83;100.00;100525.41;5057985;56;1140923;-72
2023/10/06 21:55:54;;;;;;;5.85;3.33;;;;;;;14.92;100.00;100529.88;4997490;57;1141213;-72
2023/10/06 22:01:01;;;;;;;7.20;3.60;;;;;;;14.98;100.00;100524.44;4930850;58;1140806;-71
2023/10/06 22:06:08;;;;;;;7.80;3.52;;;;;;;15.05;100.00;100529.05;4996002;57;1141054;-71
2023/10/06 22:11:15;;;;;;;5.37;2.70;;;;;;;15.06;100.00;100512.08;4931779;58;1140832;-72
2023/10/06 22:16:21;;;;;;;12.00;2.72;;;;;;;15.10;100.00;100500.64;4994340;56;1140907;-72
2023/10/06 22:21:26;;;;;;;6.78;2.80;;;;;;;15.18;100.00;100495.88;4996908;56;1142994;-71
2023/10/06 22:26:32;;;;;;;7.17;2.50;;;;;;;15.25;100.00;100479.17;5017068;56;1140963;-72
2023/10/06 22:31:38;;;;;;;6.83;2.80;;;;;;;15.33;100.00;100473.91;4997130;56;1140649;-72
2023/10/06 22:36:44;;;;;;;4.00;2.20;;;;;;;15.38;100.00;100467.64;4997050;57;1141024;-72
2023/10/06 22:41:49;;;;;;;7.77;2.17;;;;;;;15.41;100.00;100467.34;5016869;56;1140797;-71
2023/10/06 22:46:55;;;;;;;4.00;2.43;;;;;;;15.44;100.00;100443.53;5000926;56;1140761;-72
2023/10/06 22:52:01;;;;;;;4.63;2.47;;;;;;;15.47;100.00;100445.40;5052521;56;1140667;-71